sensor_id;sensor_type;location;lat;lon;timestamp;pressure;altitude;pressure_sealevel;temperature;humidity
80629;BME280;69983;42.370;-71.210;2023-05-07T00:01:08;101516.44;;;23.99;29.71
80629;BME280;69983;42.370;-71.210;2023-05-07T00:03:33;101521.20;;;23.52;30.17
80629;BME280;69983;42.370;-71.210;2023-05-07T00:05:58;101518.25;;;23.18;30.76
80629;BME280;69983;42.370;-71.210;2023-05-07T00:08:23;101523.21;;;23.08;31.10
80629;BME280;69983;42.370;-71.210;2023-05-07T00:10:49;101523.68;;;23.40;31.20
80629;BME280;69983;42.370;-71.210;2023-05-07T00:13:14;101520.40;;;23.12;31.21
80629;BME280;69983;42.370;-71.210;2023-05-07T00:15:39;101522.16;;;23.27;30.98
80629;BME280;69983;42.370;-71.210;2023-05-07T00:18:05;101523.92;;;22.95;30.76
80629;BME280;69983;42.370;-71.210;2023-05-07T00:20:31;101524.29;;;23.31;31.02
80629;BME280;69983;42.370;-71.210;2023-05-07T00:22:56;101525.74;;;23.32;31.27
80629;BME280;69983;42.370;-71.210;2023-05-07T00:25:22;101529.01;;;23.13;31.42
80629;BME280;69983;42.370;-71.210;2023-05-07T00:27:48;101530.24;;;23.25;31.42
80629;BME280;69983;42.370;-71.210;2023-05-07T00:30:14;101530.49;;;23.59;31.02
80629;BME280;69983;42.370;-71.210;2023-05-07T00:32:39;101536.54;;;23.54;30.80
80629;BME280;69983;42.370;-71.210;2023-05-07T00:35:05;101537.80;;;23.05;30.63
80629;BME280;69983;42.370;-71.210;2023-05-07T00:37:29;101538.94;;;22.96;30.40
80629;BME280;69983;42.370;-71.210;2023-05-07T00:39:55;101538.92;;;22.91;30.90
80629;BME280;69983;42.370;-71.210;2023-05-07T00:42:20;101543.22;;;23.23;31.10
80629;BME280;69983;42.370;-71.210;2023-05-07T00:44:45;101544.08;;;22.87;31.45
80629;BME280;69983;42.370;-71.210;2023-05-07T00:47:11;101541.44;;;23.02;31.66
80629;BME280;69983;42.370;-71.210;2023-05-07T00:49:39;101544.18;;;23.57;30.82
80629;BME280;69983;42.370;-71.210;2023-05-07T00:52:02;101546.74;;;23.23;30.45
80629;BME280;69983;42.370;-71.210;2023-05-07T00:54:27;101551.18;;;23.10;30.63
80629;BME280;69983;42.370;-71.210;2023-05-07T00:56:53;101554.05;;;22.95;31.00
80629;BME280;69983;42.370;-71.210;2023-05-07T00:59:17;101556.66;;;22.99;31.18
80629;BME280;69983;42.370;-71.210;2023-05-07T01:01:42;101555.74;;;22.94;31.27
80629;BME280;69983;42.370;-71.210;2023-05-07T01:04:08;101558.41;;;23.31;31.34
80629;BME280;69983;42.370;-71.210;2023-05-07T01:06:33;101556.34;;;23.25;31.66
80629;BME280;69983;42.370;-71.210;2023-05-07T01:08:59;101555.11;;;23.36;30.82
80629;BME280;69983;42.370;-71.210;2023-05-07T01:11:25;101560.71;;;21.82;30.34
80629;BME280;69983;42.370;-71.210;2023-05-07T01:13:50;101560.72;;;21.80;29.54
80629;BME280;69983;42.370;-71.210;2023-05-07T01:16:15;101562.99;;;22.18;29.62
80629;BME280;69983;42.370;-71.210;2023-05-07T01:18:41;101567.02;;;22.59;29.23
80629;BME280;69983;42.370;-71.210;2023-05-07T01:21:07;101570.63;;;24.18;29.52
80629;BME280;69983;42.370;-71.210;2023-05-07T01:23:33;101576.59;;;24.09;30.25
80629;BME280;69983;42.370;-71.210;2023-05-07T01:25:58;101577.74;;;23.73;30.38
80629;BME280;69983;42.370;-71.210;2023-05-07T01:28:23;101578.20;;;23.79;30.08
80629;BME280;69983;42.370;-71.210;2023-05-07T01:30:53;101578.36;;;23.56;30.18
80629;BME280;69983;42.370;-71.210;2023-05-07T01:33:17;101579.03;;;23.27;30.70
80629;BME280;69983;42.370;-71.210;2023-05-07T01:35:40;101579.70;;;23.49;30.95
80629;BME280;69983;42.370;-71.210;2023-05-07T01:38:04;101577.79;;;23.17;31.00
80629;BME280;69983;42.370;-71.210;2023-05-07T01:40:29;101578.43;;;23.29;31.05
80629;BME280;69983;42.370;-71.210;2023-05-07T01:42:54;101576.79;;;23.31;31.12
80629;BME280;69983;42.370;-71.210;2023-05-07T01:45:19;101578.48;;;23.51;30.55
80629;BME280;69983;42.370;-71.210;2023-05-07T01:47:45;101577.53;;;23.32;30.46
80629;BME280;69983;42.370;-71.210;2023-05-07T01:50:10;101575.98;;;23.00;30.23
80629;BME280;69983;42.370;-71.210;2023-05-07T01:52:36;101572.92;;;23.36;30.66
80629;BME280;69983;42.370;-71.210;2023-05-07T01:55:00;101574.46;;;23.07;30.93
80629;BME280;69983;42.370;-71.210;2023-05-07T01:57:25;101576.77;;;23.07;30.92
80629;BME280;69983;42.370;-71.210;2023-05-07T01:59:51;101576.74;;;23.68;30.95
80629;BME280;69983;42.370;-71.210;2023-05-07T02:02:16;101579.01;;;23.41;30.90
80629;BME280;69983;42.370;-71.210;2023-05-07T02:04:41;101573.47;;;24.23;30.81
80629;BME280;69983;42.370;-71.210;2023-05-07T02:07:06;101575.51;;;23.70;30.18
80629;BME280;69983;42.370;-71.210;2023-05-07T02:09:31;101571.26;;;23.24;30.29
80629;BME280;69983;42.370;-71.210;2023-05-07T02:11:56;101570.26;;;22.24;30.28
80629;BME280;69983;42.370;-71.210;2023-05-07T02:14:21;101568.74;;;22.28;30.00
80629;BME280;69983;42.370;-71.210;2023-05-07T02:16:46;101565.72;;;22.04;29.74
80629;BME280;69983;42.370;-71.210;2023-05-07T02:19:11;101564.95;;;22.20;29.53
80629;BME280;69983;42.370;-71.210;2023-05-07T02:21:36;101567.90;;;23.43;29.41
80629;BME280;69983;42.370;-71.210;2023-05-07T02:24:02;101564.91;;;24.74;29.07
80629;BME280;69983;42.370;-71.210;2023-05-07T02:26:27;101568.19;;;23.97;29.50
80629;BME280;69983;42.370;-71.210;2023-05-07T02:28:52;101571.94;;;23.42;30.39
80629;BME280;69983;42.370;-71.210;2023-05-07T02:31:17;101571.41;;;22.42;30.64
80629;BME280;69983;42.370;-71.210;2023-05-07T02:33:42;101572.36;;;22.69;29.27
80629;BME280;69983;42.370;-71.210;2023-05-07T02:36:08;101574.19;;;23.16;28.41
80629;BME280;69983;42.370;-71.210;2023-05-07T02:38:33;101578.78;;;23.48;27.41
80629;BME280;69983;42.370;-71.210;2023-05-07T02:40:58;101580.40;;;23.09;27.25
80629;BME280;69983;42.370;-71.210;2023-05-07T02:43:23;101580.49;;;23.09;27.12
80629;BME280;69983;42.370;-71.210;2023-05-07T02:45:48;101581.84;;;22.90;26.77
80629;BME280;69983;42.370;-71.210;2023-05-07T02:48:13;101584.00;;;23.30;26.13
80629;BME280;69983;42.370;-71.210;2023-05-07T02:50:39;101582.64;;;23.12;26.10
80629;BME280;69983;42.370;-71.210;2023-05-07T02:53:04;101583.90;;;23.23;25.71
80629;BME280;69983;42.370;-71.210;2023-05-07T02:55:29;101576.79;;;22.23;26.53
80629;BME280;69983;42.370;-71.210;2023-05-07T02:57:55;101578.00;;;22.62;26.05
80629;BME280;69983;42.370;-71.210;2023-05-07T03:00:21;101577.52;;;22.71;25.92
80629;BME280;69983;42.370;-71.210;2023-05-07T03:02:46;101573.29;;;23.66;25.88
80629;BME280;69983;42.370;-71.210;2023-05-07T03:05:11;101573.65;;;22.62;25.90
80629;BME280;69983;42.370;-71.210;2023-05-07T03:07:36;101569.78;;;22.49;25.71
80629;BME280;69983;42.370;-71.210;2023-05-07T03:10:02;101572.18;;;22.81;25.70
80629;BME280;69983;42.370;-71.210;2023-05-07T03:12:27;101573.00;;;22.99;25.53
80629;BME280;69983;42.370;-71.210;2023-05-07T03:14:53;101569.95;;;24.03;26.28
80629;BME280;69983;42.370;-71.210;2023-05-07T03:17:18;101573.59;;;24.03;26.71
80629;BME280;69983;42.370;-71.210;2023-05-07T03:19:43;101571.31;;;23.67;27.00
80629;BME280;69983;42.370;-71.210;2023-05-07T03:22:09;101573.27;;;23.03;27.46
80629;BME280;69983;42.370;-71.210;2023-05-07T03:24:34;101572.11;;;23.30;27.37
80629;BME280;69983;42.370;-71.210;2023-05-07T03:27:00;101568.94;;;23.35;27.51
80629;BME280;69983;42.370;-71.210;2023-05-07T03:29:25;101568.84;;;21.27;27.43
80629;BME280;69983;42.370;-71.210;2023-05-07T03:31:51;101569.19;;;21.93;26.67
80629;BME280;69983;42.370;-71.210;2023-05-07T03:34:16;101566.28;;;22.26;26.13
80629;BME280;69983;42.370;-71.210;2023-05-07T03:36:41;101568.74;;;22.07;26.32
80629;BME280;69983;42.370;-71.210;2023-05-07T03:39:07;101569.64;;;23.53;26.64
80629;BME280;69983;42.370;-71.210;2023-05-07T03:41:33;101573.61;;;23.34;26.95
80629;BME280;69983;42.370;-71.210;2023-05-07T03:43:58;101571.98;;;23.16;27.13
80629;BME280;69983;42.370;-71.210;2023-05-07T03:46:24;101573.03;;;23.38;27.33
80629;BME280;69983;42.370;-71.210;2023-05-07T03:48:49;101572.35;;;23.08;27.11
80629;BME280;69983;42.370;-71.210;2023-05-07T03:51:14;101572.38;;;23.42;27.04
80629;BME280;69983;42.370;-71.210;2023-05-07T03:53:40;101572.33;;;22.47;27.73
80629;BME280;69983;42.370;-71.210;2023-05-07T03:56:05;101571.35;;;23.15;27.39
80629;BME280;69983;42.370;-71.210;2023-05-07T03:58:31;101570.01;;;23.18;27.11
80629;BME280;69983;42.370;-71.210;2023-05-07T04:00:56;101568.87;;;23.08;27.43
80629;BME280;69983;42.370;-71.210;2023-05-07T04:03:21;101567.49;;;22.77;27.72
80629;BME280;69983;42.370;-71.210;2023-05-07T04:05:46;101566.98;;;22.93;27.59
80629;BME280;69983;42.370;-71.210;2023-05-07T04:08:12;101562.31;;;22.58;28.07
80629;BME280;69983;42.370;-71.210;2023-05-07T04:10:38;101558.54;;;22.13;28.10
80629;BME280;69983;42.370;-71.210;2023-05-07T04:13:03;101554.48;;;22.24;28.09
80629;BME280;69983;42.370;-71.210;2023-05-07T04:15:28;101552.98;;;22.60;28.05
80629;BME280;69983;42.370;-71.210;2023-05-07T04:17:54;101556.24;;;22.20;28.45
80629;BME280;69983;42.370;-71.210;2023-05-07T04:20:20;101557.08;;;22.40;28.28
80629;BME280;69983;42.370;-71.210;2023-05-07T04:22:45;101556.73;;;22.52;28.66
80629;BME280;69983;42.370;-71.210;2023-05-07T04:25:10;101553.78;;;22.08;28.66
80629;BME280;69983;42.370;-71.210;2023-05-07T04:27:36;101550.56;;;22.40;28.28
80629;BME280;69983;42.370;-71.210;2023-05-07T04:30:01;101544.23;;;22.68;28.20
80629;BME280;69983;42.370;-71.210;2023-05-07T04:32:26;101539.96;;;22.81;28.03
80629;BME280;69983;42.370;-71.210;2023-05-07T04:34:51;101538.73;;;22.28;28.10
80629;BME280;69983;42.370;-71.210;2023-05-07T04:37:16;101534.35;;;22.67;28.05
80629;BME280;69983;42.370;-71.210;2023-05-07T04:39:41;101533.11;;;22.91;27.61
80629;BME280;69983;42.370;-71.210;2023-05-07T04:42:06;101533.30;;;20.70;27.83
80629;BME280;69983;42.370;-71.210;2023-05-07T04:44:32;101532.45;;;21.24;27.19
80629;BME280;69983;42.370;-71.210;2023-05-07T04:46:57;101530.00;;;20.95;27.14
80629;BME280;69983;42.370;-71.210;2023-05-07T04:49:22;101528.14;;;21.52;26.74
80629;BME280;69983;42.370;-71.210;2023-05-07T04:51:48;101526.56;;;22.57;27.20
80629;BME280;69983;42.370;-71.210;2023-05-07T04:54:13;101532.85;;;22.75;27.53
80629;BME280;69983;42.370;-71.210;2023-05-07T04:56:39;101533.22;;;22.70;27.46
80629;BME280;69983;42.370;-71.210;2023-05-07T04:59:04;101532.06;;;22.46;27.62
80629;BME280;69983;42.370;-71.210;2023-05-07T05:01:29;101531.26;;;22.36;27.69
80629;BME280;69983;42.370;-71.210;2023-05-07T05:03:54;101533.15;;;22.39;27.83
80629;BME280;69983;42.370;-71.210;2023-05-07T05:06:20;101529.44;;;22.28;28.08
80629;BME280;69983;42.370;-71.210;2023-05-07T05:08:45;101525.70;;;22.15;28.34
80629;BME280;69983;42.370;-71.210;2023-05-07T05:11:10;101521.48;;;21.95;28.66
80629;BME280;69983;42.370;-71.210;2023-05-07T05:13:36;101523.07;;;22.07;28.55
80629;BME280;69983;42.370;-71.210;2023-05-07T05:16:01;101522.60;;;22.16;28.44
80629;BME280;69983;42.370;-71.210;2023-05-07T05:18:26;101520.59;;;22.57;28.01
80629;BME280;69983;42.370;-71.210;2023-05-07T05:20:52;101519.50;;;22.22;28.05
80629;BME280;69983;42.370;-71.210;2023-05-07T05:23:17;101514.03;;;22.21;28.16
80629;BME280;69983;42.370;-71.210;2023-05-07T05:25:43;101509.69;;;22.02;28.08
80629;BME280;69983;42.370;-71.210;2023-05-07T05:28:08;101504.35;;;21.77;28.23
80629;BME280;69983;42.370;-71.210;2023-05-07T05:30:33;101500.27;;;21.96;27.90
80629;BME280;69983;42.370;-71.210;2023-05-07T05:32:59;101498.76;;;22.27;27.48
80629;BME280;69983;42.370;-71.210;2023-05-07T05:35:24;101492.32;;;22.22;27.89
80629;BME280;69983;42.370;-71.210;2023-05-07T05:37:49;101491.89;;;22.06;27.98
80629;BME280;69983;42.370;-71.210;2023-05-07T05:40:15;101490.33;;;22.38;27.71
80629;BME280;69983;42.370;-71.210;2023-05-07T05:42:40;101486.27;;;20.91;27.10
80629;BME280;69983;42.370;-71.210;2023-05-07T05:45:07;101484.22;;;21.59;26.19
80629;BME280;69983;42.370;-71.210;2023-05-07T05:47:31;101484.14;;;22.14;25.94
80629;BME280;69983;42.370;-71.210;2023-05-07T05:49:57;101479.78;;;21.82;25.84
80629;BME280;69983;42.370;-71.210;2023-05-07T05:52:21;101481.54;;;23.49;26.04
80629;BME280;69983;42.370;-71.210;2023-05-07T05:54:47;101483.19;;;23.28;26.57
80629;BME280;69983;42.370;-71.210;2023-05-07T05:57:13;101483.68;;;22.95;26.83
80629;BME280;69983;42.370;-71.210;2023-05-07T05:59:39;101478.23;;;22.86;27.40
80629;BME280;69983;42.370;-71.210;2023-05-07T06:02:05;101474.52;;;22.43;27.41
80629;BME280;69983;42.370;-71.210;2023-05-07T06:04:30;101469.90;;;21.75;27.93
80629;BME280;69983;42.370;-71.210;2023-05-07T06:06:56;101470.05;;;21.64;28.10
80629;BME280;69983;42.370;-71.210;2023-05-07T06:09:21;101472.21;;;21.94;28.06
80629;BME280;69983;42.370;-71.210;2023-05-07T06:11:47;101473.75;;;22.20;27.90
80629;BME280;69983;42.370;-71.210;2023-05-07T06:14:13;101470.12;;;22.32;27.86
80629;BME280;69983;42.370;-71.210;2023-05-07T06:16:38;101471.79;;;22.33;27.87
80629;BME280;69983;42.370;-71.210;2023-05-07T06:19:03;101467.35;;;22.34;27.92
80629;BME280;69983;42.370;-71.210;2023-05-07T06:21:29;101468.74;;;22.06;28.01
80629;BME280;69983;42.370;-71.210;2023-05-07T06:23:54;101468.37;;;22.11;28.00
80629;BME280;69983;42.370;-71.210;2023-05-07T06:26:25;101470.67;;;22.48;27.73
80629;BME280;69983;42.370;-71.210;2023-05-07T06:28:45;101469.25;;;22.34;27.68
80629;BME280;69983;42.370;-71.210;2023-05-07T06:31:13;101471.12;;;22.47;28.06
80629;BME280;69983;42.370;-71.210;2023-05-07T06:33:36;101466.58;;;20.71;27.96
80629;BME280;69983;42.370;-71.210;2023-05-07T06:36:01;101464.46;;;20.63;27.67
80629;BME280;69983;42.370;-71.210;2023-05-07T06:38:27;101463.30;;;20.67;27.56
80629;BME280;69983;42.370;-71.210;2023-05-07T06:40:52;101457.52;;;21.16;26.71
80629;BME280;69983;42.370;-71.210;2023-05-07T06:43:17;101457.73;;;23.70;26.09
80629;BME280;69983;42.370;-71.210;2023-05-07T06:45:43;101457.37;;;23.41;26.86
80629;BME280;69983;42.370;-71.210;2023-05-07T06:48:09;101457.63;;;22.84;27.36
80629;BME280;69983;42.370;-71.210;2023-05-07T06:50:35;101458.40;;;22.14;27.96
80629;BME280;69983;42.370;-71.210;2023-05-07T06:53:00;101462.32;;;22.50;27.57
80629;BME280;69983;42.370;-71.210;2023-05-07T06:55:25;101458.48;;;20.95;27.69
80629;BME280;69983;42.370;-71.210;2023-05-07T06:57:50;101452.25;;;21.00;27.63
80629;BME280;69983;42.370;-71.210;2023-05-07T07:00:16;101450.33;;;21.31;27.33
80629;BME280;69983;42.370;-71.210;2023-05-07T07:02:41;101447.56;;;21.75;27.17
80629;BME280;69983;42.370;-71.210;2023-05-07T07:05:07;101448.22;;;23.48;27.76
80629;BME280;69983;42.370;-71.210;2023-05-07T07:07:31;101449.58;;;23.30;28.42
80629;BME280;69983;42.370;-71.210;2023-05-07T07:09:57;101448.00;;;23.16;28.67
80629;BME280;69983;42.370;-71.210;2023-05-07T07:12:22;101445.85;;;23.16;28.84
80629;BME280;69983;42.370;-71.210;2023-05-07T07:14:48;101445.47;;;23.08;29.05
80629;BME280;69983;42.370;-71.210;2023-05-07T07:17:13;101444.55;;;23.17;29.08
80629;BME280;69983;42.370;-71.210;2023-05-07T07:19:38;101440.87;;;23.17;29.23
80629;BME280;69983;42.370;-71.210;2023-05-07T07:22:04;101440.82;;;23.12;29.34
80629;BME280;69983;42.370;-71.210;2023-05-07T07:24:29;101439.61;;;23.50;29.33
80629;BME280;69983;42.370;-71.210;2023-05-07T07:26:55;101440.78;;;23.26;29.38
80629;BME280;69983;42.370;-71.210;2023-05-07T07:29:21;101439.04;;;23.12;29.62
80629;BME280;69983;42.370;-71.210;2023-05-07T07:31:46;101436.52;;;23.12;29.68
80629;BME280;69983;42.370;-71.210;2023-05-07T07:34:11;101436.48;;;23.04;29.83
80629;BME280;69983;42.370;-71.210;2023-05-07T07:36:36;101436.27;;;23.19;29.80
80629;BME280;69983;42.370;-71.210;2023-05-07T07:39:01;101434.42;;;23.23;29.82
80629;BME280;69983;42.370;-71.210;2023-05-07T07:41:26;101432.40;;;22.84;30.02
80629;BME280;69983;42.370;-71.210;2023-05-07T07:43:51;101433.52;;;23.19;29.98
80629;BME280;69983;42.370;-71.210;2023-05-07T07:46:16;101435.46;;;23.39;29.91
80629;BME280;69983;42.370;-71.210;2023-05-07T07:48:42;101432.06;;;23.15;30.22
80629;BME280;69983;42.370;-71.210;2023-05-07T07:51:07;101432.98;;;23.13;30.15
80629;BME280;69983;42.370;-71.210;2023-05-07T07:53:32;101432.11;;;23.47;30.12
80629;BME280;69983;42.370;-71.210;2023-05-07T07:55:57;101434.74;;;23.26;30.38
80629;BME280;69983;42.370;-71.210;2023-05-07T07:58:22;101438.57;;;23.31;30.41
80629;BME280;69983;42.370;-71.210;2023-05-07T08:00:47;101434.90;;;23.31;30.26
80629;BME280;69983;42.370;-71.210;2023-05-07T08:03:13;101434.38;;;22.90;30.17
80629;BME280;69983;42.370;-71.210;2023-05-07T08:05:37;101433.86;;;22.18;30.43
80629;BME280;69983;42.370;-71.210;2023-05-07T08:08:03;101431.78;;;22.09;30.30
80629;BME280;69983;42.370;-71.210;2023-05-07T08:10:28;101429.85;;;22.69;30.42
80629;BME280;69983;42.370;-71.210;2023-05-07T08:12:53;101427.56;;;22.95;30.10
80629;BME280;69983;42.370;-71.210;2023-05-07T08:15:18;101423.42;;;22.82;30.12
80629;BME280;69983;42.370;-71.210;2023-05-07T08:17:43;101420.44;;;23.31;30.22
80629;BME280;69983;42.370;-71.210;2023-05-07T08:20:09;101418.37;;;22.90;30.30
80629;BME280;69983;42.370;-71.210;2023-05-07T08:22:34;101420.17;;;23.29;30.25
80629;BME280;69983;42.370;-71.210;2023-05-07T08:24:58;101420.38;;;23.05;30.45
80629;BME280;69983;42.370;-71.210;2023-05-07T08:27:23;101416.36;;;23.22;30.35
80629;BME280;69983;42.370;-71.210;2023-05-07T08:29:49;101417.42;;;23.20;30.37
80629;BME280;69983;42.370;-71.210;2023-05-07T08:32:14;101416.30;;;23.27;30.62
80629;BME280;69983;42.370;-71.210;2023-05-07T08:34:39;101417.08;;;23.33;30.35
80629;BME280;69983;42.370;-71.210;2023-05-07T08:37:04;101409.69;;;23.55;30.18
80629;BME280;69983;42.370;-71.210;2023-05-07T08:39:29;101411.07;;;23.41;30.31
80629;BME280;69983;42.370;-71.210;2023-05-07T08:41:55;101405.35;;;23.18;30.38
80629;BME280;69983;42.370;-71.210;2023-05-07T08:44:22;101406.33;;;23.33;30.49
80629;BME280;69983;42.370;-71.210;2023-05-07T08:46:46;101402.90;;;23.45;30.46
80629;BME280;69983;42.370;-71.210;2023-05-07T08:49:09;101402.89;;;23.32;30.63
80629;BME280;69983;42.370;-71.210;2023-05-07T08:51:36;101399.81;;;23.43;30.58
80629;BME280;69983;42.370;-71.210;2023-05-07T08:54:00;101404.36;;;23.00;30.83
80629;BME280;69983;42.370;-71.210;2023-05-07T08:56:25;101398.27;;;23.40;30.69
80629;BME280;69983;42.370;-71.210;2023-05-07T08:58:50;101400.41;;;23.49;30.65
80629;BME280;69983;42.370;-71.210;2023-05-07T09:01:16;101406.12;;;23.42;30.79
80629;BME280;69983;42.370;-71.210;2023-05-07T09:03:40;101400.30;;;23.99;30.50
80629;BME280;69983;42.370;-71.210;2023-05-07T09:06:06;101402.12;;;23.77;30.55
80629;BME280;69983;42.370;-71.210;2023-05-07T09:08:32;101400.70;;;23.27;30.84
80629;BME280;69983;42.370;-71.210;2023-05-07T09:10:55;101406.29;;;23.65;30.80
80629;BME280;69983;42.370;-71.210;2023-05-07T09:13:20;101407.28;;;23.53;31.01
80629;BME280;69983;42.370;-71.210;2023-05-07T09:15:46;101409.94;;;23.46;31.09
80629;BME280;69983;42.370;-71.210;2023-05-07T09:18:11;101407.92;;;23.45;31.16
80629;BME280;69983;42.370;-71.210;2023-05-07T09:20:37;101409.75;;;23.52;31.10
80629;BME280;69983;42.370;-71.210;2023-05-07T09:23:01;101411.06;;;23.14;31.27
80629;BME280;69983;42.370;-71.210;2023-05-07T09:25:30;101407.34;;;23.50;30.97
80629;BME280;69983;42.370;-71.210;2023-05-07T09:27:51;101403.30;;;23.51;31.16
80629;BME280;69983;42.370;-71.210;2023-05-07T09:30:16;101400.15;;;23.59;31.11
80629;BME280;69983;42.370;-71.210;2023-05-07T09:32:41;101393.50;;;23.29;31.25
80629;BME280;69983;42.370;-71.210;2023-05-07T09:35:14;101392.62;;;23.62;31.21
80629;BME280;69983;42.370;-71.210;2023-05-07T09:37:32;101396.61;;;23.31;31.34
80629;BME280;69983;42.370;-71.210;2023-05-07T09:39:57;101405.79;;;23.87;31.21
80629;BME280;69983;42.370;-71.210;2023-05-07T09:42:24;101402.12;;;23.21;31.70
80629;BME280;69983;42.370;-71.210;2023-05-07T09:44:47;101401.78;;;23.40;31.55
80629;BME280;69983;42.370;-71.210;2023-05-07T09:47:16;101401.76;;;23.51;31.39
80629;BME280;69983;42.370;-71.210;2023-05-07T09:49:39;101400.19;;;23.62;31.70
80629;BME280;69983;42.370;-71.210;2023-05-07T09:52:04;101399.88;;;23.86;31.22
80629;BME280;69983;42.370;-71.210;2023-05-07T09:54:28;101400.95;;;23.55;31.27
80629;BME280;69983;42.370;-71.210;2023-05-07T09:56:53;101399.38;;;23.75;31.29
80629;BME280;69983;42.370;-71.210;2023-05-07T09:59:18;101395.49;;;23.51;31.52
80629;BME280;69983;42.370;-71.210;2023-05-07T10:01:43;101397.57;;;23.52;31.47
80629;BME280;69983;42.370;-71.210;2023-05-07T10:04:08;101393.25;;;23.70;31.30
80629;BME280;69983;42.370;-71.210;2023-05-07T10:06:33;101398.34;;;23.61;31.40
80629;BME280;69983;42.370;-71.210;2023-05-07T10:08:59;101404.42;;;23.89;31.23
80629;BME280;69983;42.370;-71.210;2023-05-07T10:11:23;101403.88;;;23.44;31.43
80629;BME280;69983;42.370;-71.210;2023-05-07T10:13:48;101405.33;;;23.83;31.31
80629;BME280;69983;42.370;-71.210;2023-05-07T10:16:14;101402.92;;;24.02;31.11
80629;BME280;69983;42.370;-71.210;2023-05-07T10:18:39;101404.43;;;23.92;31.24
80629;BME280;69983;42.370;-71.210;2023-05-07T10:21:08;101405.91;;;23.35;31.31
80629;BME280;69983;42.370;-71.210;2023-05-07T10:23:29;101403.09;;;23.60;31.53
80629;BME280;69983;42.370;-71.210;2023-05-07T10:25:54;101405.35;;;23.36;31.34
80629;BME280;69983;42.370;-71.210;2023-05-07T10:28:20;101400.09;;;23.61;31.12
80629;BME280;69983;42.370;-71.210;2023-05-07T10:30:55;101399.42;;;23.89;31.30
80629;BME280;69983;42.370;-71.210;2023-05-07T10:33:11;101401.73;;;23.82;31.37
80629;BME280;69983;42.370;-71.210;2023-05-07T10:35:40;101404.35;;;24.09;31.11
80629;BME280;69983;42.370;-71.210;2023-05-07T10:37:59;101404.46;;;23.95;31.26
80629;BME280;69983;42.370;-71.210;2023-05-07T10:40:24;101404.29;;;24.06;31.14
80629;BME280;69983;42.370;-71.210;2023-05-07T10:42:56;101403.68;;;24.06;31.24
80629;BME280;69983;42.370;-71.210;2023-05-07T10:45:15;101403.76;;;23.99;31.12
80629;BME280;69983;42.370;-71.210;2023-05-07T10:50:20;101403.52;;;22.80;31.16
80629;BME280;69983;42.370;-71.210;2023-05-07T10:52:30;101402.07;;;21.95;31.64
80629;BME280;69983;42.370;-71.210;2023-05-07T10:57:33;101394.04;;;23.11;30.82
80629;BME280;69983;42.370;-71.210;2023-05-07T10:59:45;101393.82;;;22.99;30.58
80629;BME280;69983;42.370;-71.210;2023-05-07T11:02:10;101387.81;;;23.39;30.50
80629;BME280;69983;42.370;-71.210;2023-05-07T11:04:36;101386.52;;;23.56;30.40
80629;BME280;69983;42.370;-71.210;2023-05-07T11:07:20;101390.25;;;23.39;30.65
80629;BME280;69983;42.370;-71.210;2023-05-07T11:11:51;101392.58;;;21.59;30.26
80629;BME280;69983;42.370;-71.210;2023-05-07T11:16:43;101392.75;;;22.02;29.65
80629;BME280;69983;42.370;-71.210;2023-05-07T11:19:07;101387.54;;;23.43;29.91
80629;BME280;69983;42.370;-71.210;2023-05-07T11:21:34;101386.37;;;23.26;30.54
80629;BME280;69983;42.370;-71.210;2023-05-07T11:23:59;101382.21;;;23.08;30.77
80629;BME280;69983;42.370;-71.210;2023-05-07T11:26:22;101384.71;;;22.80;31.09
80629;BME280;69983;42.370;-71.210;2023-05-07T11:28:48;101381.59;;;23.23;31.17
80629;BME280;69983;42.370;-71.210;2023-05-07T11:31:13;101377.44;;;23.11;31.11
80629;BME280;69983;42.370;-71.210;2023-05-07T11:33:39;101374.93;;;22.64;31.35
80629;BME280;69983;42.370;-71.210;2023-05-07T11:36:05;101368.79;;;22.75;31.49
80629;BME280;69983;42.370;-71.210;2023-05-07T11:38:30;101368.64;;;23.40;31.34
80629;BME280;69983;42.370;-71.210;2023-05-07T11:40:56;101375.31;;;22.85;31.42
80629;BME280;69983;42.370;-71.210;2023-05-07T11:43:19;101376.18;;;22.76;31.55
80629;BME280;69983;42.370;-71.210;2023-05-07T11:45:45;101377.54;;;22.94;31.63
80629;BME280;69983;42.370;-71.210;2023-05-07T11:48:09;101374.34;;;22.91;31.46
80629;BME280;69983;42.370;-71.210;2023-05-07T11:50:34;101380.93;;;22.83;31.56
80629;BME280;69983;42.370;-71.210;2023-05-07T11:52:59;101372.30;;;23.01;31.63
80629;BME280;69983;42.370;-71.210;2023-05-07T11:55:25;101368.18;;;23.13;31.54
80629;BME280;69983;42.370;-71.210;2023-05-07T11:57:50;101363.35;;;23.13;31.53
80629;BME280;69983;42.370;-71.210;2023-05-07T12:00:16;101361.22;;;22.69;31.71
80629;BME280;69983;42.370;-71.210;2023-05-07T12:02:40;101361.24;;;22.85;31.82
80629;BME280;69983;42.370;-71.210;2023-05-07T12:05:05;101366.96;;;22.89;31.77
80629;BME280;69983;42.370;-71.210;2023-05-07T12:07:32;101361.80;;;22.60;31.84
80629;BME280;69983;42.370;-71.210;2023-05-07T12:09:55;101356.09;;;22.97;31.77
80629;BME280;69983;42.370;-71.210;2023-05-07T12:12:20;101353.01;;;23.05;31.71
80629;BME280;69983;42.370;-71.210;2023-05-07T12:14:46;101352.31;;;23.03;31.59
80629;BME280;69983;42.370;-71.210;2023-05-07T12:17:11;101343.40;;;23.09;31.59
80629;BME280;69983;42.370;-71.210;2023-05-07T12:19:38;101342.94;;;22.92;31.56
80629;BME280;69983;42.370;-71.210;2023-05-07T12:22:01;101336.98;;;22.84;31.67
80629;BME280;69983;42.370;-71.210;2023-05-07T12:24:26;101339.25;;;22.77;31.67
80629;BME280;69983;42.370;-71.210;2023-05-07T12:26:51;101335.48;;;22.87;31.55
80629;BME280;69983;42.370;-71.210;2023-05-07T12:29:16;101328.58;;;22.96;31.44